createdAt,value
2018-08-13T00:01:15.470Z,99668.79
2018-08-13T00:06:26.568Z,99670.53
2018-08-13T00:08:55.423Z,99673.63
2018-08-13T00:11:24.281Z,99666.05
2018-08-13T00:13:53.101Z,99665.63
2018-08-13T00:16:21.807Z,99665.98
2018-08-13T00:18:59.963Z,99656.67
2018-08-13T00:21:29.571Z,99658.41
2018-08-13T00:23:58.162Z,99661.50
2018-08-13T00:26:26.929Z,99664.73
2018-08-13T00:29:09.255Z,99662.92
2018-08-13T00:31:38.072Z,99652.81
2018-08-13T00:34:06.980Z,99659.41
2018-08-13T00:36:36.271Z,99656.45
2018-08-13T00:39:08.288Z,99652.95
2018-08-13T00:41:37.262Z,99653.08
2018-08-13T00:44:06.169Z,99652.86
2018-08-13T00:46:35.901Z,99649.73
2018-08-13T00:49:06.125Z,99643.70
2018-08-13T00:51:35.731Z,99648.28
2018-08-13T00:54:05.673Z,99641.67
2018-08-13T00:56:34.613Z,99641.59
2018-08-13T00:59:03.597Z,99634.41
2018-08-13T01:01:32.286Z,99635.58
2018-08-13T01:04:01.076Z,99639.39
2018-08-13T01:06:30.016Z,99635.44
2018-08-13T01:08:58.788Z,99627.23
2018-08-13T01:11:28.191Z,99627.36
2018-08-13T01:13:56.945Z,99627.73
2018-08-13T01:16:25.739Z,99626.92
2018-08-13T01:21:48.548Z,99619.69
2018-08-13T01:24:17.390Z,99615.63
2018-08-13T01:26:47.844Z,99612.66
2018-08-13T01:29:16.818Z,99609.36
2018-08-13T01:31:45.839Z,99611.42
2018-08-13T01:36:42.788Z,99608.41
2018-08-13T01:39:11.991Z,99603.54
2018-08-13T01:41:40.774Z,99599.64
2018-08-13T01:44:09.510Z,99590.90
2018-08-13T01:46:38.896Z,99590.83
2018-08-13T01:49:07.721Z,99597.44
2018-08-13T01:51:36.661Z,99604.19
2018-08-13T01:54:06.022Z,99597.80
2018-08-13T01:56:34.891Z,99594.94
2018-08-13T01:59:04.293Z,99604.73
2018-08-13T02:01:34.276Z,99605.93
2018-08-13T02:04:03.149Z,99606.63
2018-08-13T02:06:32.821Z,99600.68
2018-08-13T02:09:01.673Z,99596.73
2018-08-13T02:11:30.541Z,99595.93
2018-08-13T02:13:59.486Z,99595.16
2018-08-13T02:16:28.456Z,99597.13
2018-08-13T02:19:16.216Z,99584.94
2018-08-13T02:21:45.729Z,99597.45
2018-08-13T02:24:14.588Z,99592.88
2018-08-13T02:26:44.431Z,99595.34
2018-08-13T02:29:13.173Z,99590.25
2018-08-13T02:31:41.924Z,99593.88
2018-08-13T02:34:10.696Z,99587.70
2018-08-13T02:36:39.635Z,99582.00
2018-08-13T02:39:13.736Z,99580.04
2018-08-13T02:41:42.447Z,99568.65
2018-08-13T02:44:12.878Z,99568.04
2018-08-13T02:46:41.726Z,99566.47
2018-08-13T02:49:10.564Z,99564.19
2018-08-13T02:51:39.689Z,99558.22
2018-08-13T02:56:49.299Z,99552.29
2018-08-13T02:59:19.651Z,99555.36
2018-08-13T03:01:49.495Z,99561.90
2018-08-13T03:04:18.331Z,99557.35
2018-08-13T03:06:47.118Z,99556.34
2018-08-13T03:09:16.848Z,99557.17
2018-08-13T03:11:45.548Z,99549.39
2018-08-13T03:14:14.721Z,99541.10
2018-08-13T03:16:43.476Z,99533.19
2018-08-13T03:19:12.258Z,99535.73
2018-08-13T03:21:42.023Z,99535.36
2018-08-13T03:24:16.116Z,99537.70
2018-08-13T03:26:44.990Z,99543.16
2018-08-13T03:29:13.833Z,99541.63
2018-08-13T03:31:43.777Z,99543.25
2018-08-13T03:36:54.511Z,99541.20
2018-08-13T03:39:36.816Z,99546.17
2018-08-13T03:42:06.634Z,99539.13
2018-08-13T03:44:37.123Z,99542.64
2018-08-13T03:47:06.079Z,99534.92
2018-08-13T03:49:35.779Z,99538.87
2018-08-13T03:52:05.687Z,99543.64
2018-08-13T03:54:34.546Z,99540.76
2018-08-13T03:57:03.135Z,99539.05
2018-08-13T03:59:36.740Z,99544.31
2018-08-13T04:02:05.332Z,99543.08
2018-08-13T04:04:33.844Z,99540.38
2018-08-13T04:07:02.489Z,99542.02
2018-08-13T04:09:35.955Z,99542.67
2018-08-13T04:12:04.467Z,99544.00
2018-08-13T04:14:34.485Z,99543.27
2018-08-13T04:17:03.451Z,99547.41
2018-08-13T04:19:36.979Z,99555.53
2018-08-13T04:22:05.877Z,99551.85
2018-08-13T04:24:34.362Z,99548.75
2018-08-13T04:27:02.932Z,99547.32
2018-08-13T04:29:31.496Z,99547.05
2018-08-13T04:32:00.054Z,99543.14
2018-08-13T04:34:28.427Z,99535.72
2018-08-13T04:36:57.135Z,99537.41
2018-08-13T04:39:35.031Z,99537.20
2018-08-13T04:42:03.517Z,99533.56
2018-08-13T04:44:31.993Z,99538.77
2018-08-13T04:47:00.374Z,99537.61
2018-08-13T04:49:29.164Z,99543.09
2018-08-13T04:51:57.629Z,99546.19
2018-08-13T04:54:26.150Z,99540.17
2018-08-13T04:56:54.928Z,99544.30
2018-08-13T04:59:23.607Z,99553.73
2018-08-13T05:01:52.452Z,99555.41
2018-08-13T05:04:21.008Z,99553.58
2018-08-13T05:06:49.667Z,99554.13
2018-08-13T05:09:18.320Z,99550.23
2018-08-13T05:11:47.088Z,99547.31
2018-08-13T05:14:15.661Z,99545.14
2018-08-13T05:16:44.559Z,99541.37
2018-08-13T05:19:13.167Z,99539.88
2018-08-13T05:21:41.631Z,99537.91
2018-08-13T05:24:10.144Z,99537.70
2018-08-13T05:26:38.658Z,99539.11
2018-08-13T05:29:07.278Z,99540.31
2018-08-13T05:31:36.744Z,99541.89
2018-08-13T05:34:05.164Z,99537.70
2018-08-13T05:36:33.639Z,99541.81
2018-08-13T05:39:02.438Z,99543.59
2018-08-13T05:41:30.998Z,99544.31
2018-08-13T05:43:59.681Z,99547.92
2018-08-13T05:46:28.488Z,99549.61
2018-08-13T05:48:57.233Z,99550.05
2018-08-13T05:51:26.032Z,99548.08
2018-08-13T05:53:54.843Z,99547.35
2018-08-13T05:56:23.341Z,99548.48
2018-08-13T05:58:52.983Z,99544.77
2018-08-13T06:01:21.584Z,99549.58
2018-08-13T06:03:50.389Z,99544.80
2018-08-13T06:06:19.099Z,99547.09
2018-08-13T06:08:47.808Z,99542.58
2018-08-13T06:11:16.578Z,99544.26
2018-08-13T06:13:45.822Z,99538.34
2018-08-13T06:16:14.720Z,99533.63
2018-08-13T06:18:43.586Z,99531.46
2018-08-13T06:21:12.172Z,99537.17
2018-08-13T06:23:41.088Z,99531.87
2018-08-13T06:26:09.817Z,99529.94
2018-08-13T06:28:38.580Z,99530.43
2018-08-13T06:31:07.662Z,99530.80
2018-08-13T06:33:36.140Z,99535.03
2018-08-13T06:36:04.832Z,99528.13
2018-08-13T06:38:42.831Z,99521.87
2018-08-13T06:41:11.348Z,99522.33
2018-08-13T06:43:39.873Z,99519.91
2018-08-13T06:46:08.591Z,99523.28
2018-08-13T06:48:42.398Z,99518.86
2018-08-13T06:51:12.044Z,99515.45
2018-08-13T06:53:41.098Z,99510.55
2018-08-13T06:56:10.576Z,99509.50
2018-08-13T06:58:39.389Z,99508.25
2018-08-13T07:03:47.994Z,99520.59
2018-08-13T07:06:17.733Z,99507.77
2018-08-13T07:08:46.360Z,99515.63
2018-08-13T07:11:15.200Z,99510.32
2018-08-13T07:13:43.874Z,99500.58
2018-08-13T07:16:13.172Z,99504.95
2018-08-13T07:18:55.368Z,99500.40
2018-08-13T07:21:25.160Z,99500.70
2018-08-13T07:26:22.662Z,99495.71
2018-08-13T07:28:51.524Z,99495.97
2018-08-13T07:31:21.955Z,99486.75
2018-08-13T07:33:53.748Z,99494.22
2018-08-13T07:36:23.395Z,99481.55
2018-08-13T07:38:55.696Z,99485.53
2018-08-13T07:41:26.139Z,99472.81
2018-08-13T07:43:54.965Z,99475.81
2018-08-13T07:46:24.092Z,99475.10
2018-08-13T07:48:53.890Z,99472.62
2018-08-13T07:51:22.682Z,99475.02
2018-08-13T07:53:51.828Z,99472.55
2018-08-13T07:56:20.605Z,99472.20
2018-08-13T07:58:49.388Z,99466.79
2018-08-13T08:01:18.283Z,99470.53
2018-08-13T08:03:47.740Z,99467.06
2018-08-13T08:06:17.044Z,99475.63
2018-08-13T08:08:46.205Z,99474.86
2018-08-13T08:11:14.879Z,99472.36
2018-08-13T08:13:46.180Z,99468.69
2018-08-13T08:16:15.976Z,99466.77
2018-08-13T08:21:23.779Z,99462.34
2018-08-13T08:23:53.296Z,99459.45
2018-08-13T08:26:22.023Z,99455.95
2018-08-13T08:28:51.164Z,99459.23
2018-08-13T08:31:20.763Z,99459.25
2018-08-13T08:33:49.812Z,99455.34
2018-08-13T08:36:28.578Z,99458.81
2018-08-13T08:41:51.696Z,99460.56
2018-08-13T08:44:20.885Z,99458.61
2018-08-13T08:46:50.570Z,99458.56
2018-08-13T08:52:00.140Z,99451.11
2018-08-13T08:54:29.603Z,99448.93
2018-08-13T08:56:58.194Z,99444.61
2018-08-13T08:59:28.878Z,99444.02
2018-08-13T09:01:58.257Z,99441.28
2018-08-13T09:04:26.969Z,99435.17
2018-08-13T09:06:57.075Z,99437.86
2018-08-13T09:09:27.221Z,99435.46
2018-08-13T09:11:56.247Z,99429.77
2018-08-13T09:14:45.610Z,99431.59
2018-08-13T09:17:14.376Z,99426.41
2018-08-13T09:20:05.518Z,99422.77
2018-08-13T09:22:45.297Z,99423.88
2018-08-13T09:25:25.172Z,99424.70
2018-08-13T09:28:05.000Z,99422.22
2018-08-13T09:30:44.765Z,99416.67
2018-08-13T09:33:25.316Z,99421.27
2018-08-13T09:35:54.986Z,99420.92
2018-08-13T09:38:23.563Z,99414.11
2018-08-13T09:40:52.706Z,99411.19
2018-08-13T09:43:21.201Z,99405.68
2018-08-13T09:45:50.454Z,99407.27
2018-08-13T09:48:19.028Z,99399.17
2018-08-13T09:50:53.505Z,99398.20
2018-08-13T09:53:22.268Z,99390.14
2018-08-13T09:55:51.332Z,99392.23
2018-08-13T09:58:20.549Z,99390.47
2018-08-13T10:00:54.689Z,99391.67
2018-08-13T10:03:23.254Z,99389.34
2018-08-13T10:05:51.844Z,99381.91
2018-08-13T10:08:20.616Z,99386.54
2018-08-13T10:10:49.395Z,99401.91
2018-08-13T10:13:18.527Z,99394.28
2018-08-13T10:15:48.074Z,99390.27
2018-08-13T10:18:16.603Z,99389.70
2018-08-13T10:20:45.536Z,99393.36
2018-08-13T10:23:14.293Z,99400.03
2018-08-13T10:25:43.170Z,99411.22
2018-08-13T10:28:11.158Z,99405.17
2018-08-13T10:30:40.081Z,99388.49
2018-08-13T10:33:08.301Z,99400.20
2018-08-13T10:35:36.429Z,99398.09
2018-08-13T10:38:04.188Z,99398.60
2018-08-13T10:40:33.795Z,99391.70
2018-08-13T10:43:01.742Z,99388.81
2018-08-13T10:45:29.946Z,99384.89
2018-08-13T10:47:57.584Z,99386.88
2018-08-13T10:50:26.554Z,99381.38
2018-08-13T10:52:54.256Z,99381.53
2018-08-13T10:55:22.356Z,99376.94
2018-08-13T10:57:50.994Z,99370.27
2018-08-13T11:00:19.260Z,99359.27
2018-08-13T11:02:46.953Z,99355.66
2018-08-13T11:05:16.816Z,99346.94
2018-08-13T11:07:44.702Z,99343.69
2018-08-13T11:10:17.643Z,99341.94
2018-08-13T11:12:46.664Z,99342.12
2018-08-13T11:15:16.538Z,99332.47
2018-08-13T11:17:45.169Z,99338.55
2018-08-13T11:20:13.176Z,99330.04
2018-08-13T11:22:42.382Z,99331.98
2018-08-13T11:25:12.288Z,99327.44
2018-08-13T11:27:40.936Z,99330.01
2018-08-13T11:30:10.196Z,99334.64
2018-08-13T11:32:38.249Z,99330.94
2018-08-13T11:35:06.810Z,99329.16
2018-08-13T11:37:35.608Z,99347.34
2018-08-13T11:40:05.743Z,99340.94
2018-08-13T11:42:33.522Z,99334.45
2018-08-13T11:45:02.807Z,99328.34
2018-08-13T11:47:30.485Z,99340.64
2018-08-13T11:49:58.367Z,99345.59
2018-08-13T11:52:26.136Z,99355.22
2018-08-13T11:54:54.529Z,99355.81
2018-08-13T11:57:22.483Z,99354.06
2018-08-13T11:59:52.876Z,99350.68
2018-08-13T12:02:21.556Z,99346.59
2018-08-13T12:04:49.929Z,99351.27
2018-08-13T12:07:18.181Z,99358.66
2018-08-13T12:09:46.550Z,99368.41
2018-08-13T12:12:14.850Z,99375.39
2018-08-13T12:14:43.320Z,99384.72
2018-08-13T12:17:10.974Z,99398.16
2018-08-13T12:19:40.798Z,99403.83
2018-08-13T12:22:08.754Z,99402.77
2018-08-13T12:24:37.678Z,99398.69
2018-08-13T12:27:09.552Z,99403.12
2018-08-13T12:29:37.653Z,99413.03
2018-08-13T12:32:06.303Z,99419.43
2018-08-13T12:34:34.041Z,99416.68
2018-08-13T12:37:07.121Z,99417.50
2018-08-13T12:39:34.978Z,99417.98
2018-08-13T12:42:02.813Z,99414.95
2018-08-13T12:44:30.465Z,99411.86
2018-08-13T12:46:58.773Z,99428.16
2018-08-13T12:49:26.595Z,99422.66
2018-08-13T12:51:54.521Z,99424.77
2018-08-13T12:54:22.491Z,99428.74
2018-08-13T12:56:50.250Z,99429.17
2018-08-13T12:59:24.926Z,99430.53
2018-08-13T13:01:52.644Z,99438.87
2018-08-13T13:04:21.333Z,99436.83
2018-08-13T13:06:49.136Z,99445.16
2018-08-13T13:09:17.889Z,99449.89
2018-08-13T13:11:47.621Z,99448.80
2018-08-13T13:14:15.412Z,99455.17
2018-08-13T13:16:43.096Z,99451.97
2018-08-13T13:19:15.933Z,99459.20
2018-08-13T13:21:43.556Z,99454.52
2018-08-13T13:24:11.230Z,99471.31
2018-08-13T13:26:38.874Z,99477.09
2018-08-13T13:29:06.620Z,99476.23
2018-08-13T13:31:34.384Z,99483.66
2018-08-13T13:34:02.076Z,99498.95
2018-08-13T13:36:30.321Z,99500.51
2018-08-13T13:38:58.146Z,99505.63
2018-08-13T13:41:25.852Z,99515.09
2018-08-13T13:43:53.644Z,99515.98
2018-08-13T13:46:21.479Z,99522.17
2018-08-13T13:48:49.441Z,99524.04
2018-08-13T13:51:17.607Z,99512.89
2018-08-13T13:53:46.196Z,99505.97
2018-08-13T13:56:16.713Z,99514.88
2018-08-13T13:58:45.524Z,99510.94
2018-08-13T14:01:14.280Z,99495.97
2018-08-13T14:03:43.015Z,99503.81
2018-08-13T14:06:12.852Z,99504.06
2018-08-13T14:08:41.477Z,99500.20
2018-08-13T14:11:10.052Z,99493.86
2018-08-13T14:13:38.476Z,99486.48
2018-08-13T14:16:07.146Z,99503.63
2018-08-13T14:18:35.643Z,99503.69
2018-08-13T14:21:04.179Z,99507.06
2018-08-13T14:23:32.882Z,99509.25
2018-08-13T14:26:02.345Z,99525.45
2018-08-13T14:28:31.326Z,99521.39
2018-08-13T14:31:00.626Z,99513.23
2018-08-13T14:33:30.565Z,99510.12
2018-08-13T14:36:00.242Z,99503.38
2018-08-13T14:38:29.358Z,99504.38
2018-08-13T14:40:57.988Z,99501.70
2018-08-13T14:43:26.530Z,99498.98
2018-08-13T14:45:55.194Z,99486.55
2018-08-13T14:48:23.680Z,99484.03
2018-08-13T14:50:52.298Z,99490.47
2018-08-13T14:53:20.816Z,99489.28
2018-08-13T14:55:49.675Z,99490.04
2018-08-13T14:58:18.338Z,99491.83
2018-08-13T15:00:46.983Z,99490.85
2018-08-13T15:03:15.885Z,99487.96
2018-08-13T15:05:44.458Z,99485.64
2018-08-13T15:08:12.904Z,99478.45
2018-08-13T15:10:41.576Z,99482.13
2018-08-13T15:13:10.461Z,99486.21
2018-08-13T15:18:21.333Z,99477.66
2018-08-13T15:20:52.102Z,99479.81
2018-08-13T15:23:35.464Z,99475.53
2018-08-13T15:26:04.326Z,99479.22
2018-08-13T15:28:33.023Z,99473.02
2018-08-13T15:31:04.036Z,99469.32
2018-08-13T15:33:34.430Z,99465.44
2018-08-13T15:36:02.886Z,99449.73
2018-08-13T15:38:31.322Z,99435.73
2018-08-13T15:40:59.860Z,99443.50
2018-08-13T15:43:28.308Z,99437.06
2018-08-13T15:45:57.732Z,99428.91
2018-08-13T15:48:26.228Z,99429.48
2018-08-13T15:50:54.648Z,99423.29
2018-08-13T15:53:23.614Z,99417.86
2018-08-13T15:55:52.140Z,99428.33
2018-08-13T15:58:21.090Z,99417.10
2018-08-13T16:00:49.715Z,99413.22
2018-08-13T16:03:18.244Z,99408.55
2018-08-13T16:05:46.687Z,99412.06
2018-08-13T16:08:16.233Z,99411.11
2018-08-13T16:10:44.978Z,99410.51
2018-08-13T16:13:13.736Z,99409.75
2018-08-13T16:15:42.173Z,99409.15
2018-08-13T16:18:10.703Z,99407.03
2018-08-13T16:20:39.281Z,99401.41
2018-08-13T16:23:08.726Z,99399.25
2018-08-13T16:25:37.523Z,99406.44
2018-08-13T16:28:08.615Z,99407.80
2018-08-13T16:30:37.312Z,99406.44
2018-08-13T16:33:06.154Z,99402.00
2018-08-13T16:35:35.084Z,99408.19
2018-08-13T16:38:03.560Z,99410.11
2018-08-13T16:40:32.582Z,99416.91
2018-08-13T16:43:01.160Z,99407.23
2018-08-13T16:45:31.184Z,99399.84
2018-08-13T16:48:00.734Z,99400.03
2018-08-13T16:50:34.716Z,99403.31
2018-08-13T16:53:03.290Z,99396.92
2018-08-13T16:55:33.565Z,99406.43
2018-08-13T16:58:02.883Z,99390.89
2018-08-13T17:03:24.245Z,99395.76
2018-08-13T17:05:54.984Z,99389.94
2018-08-13T17:08:23.738Z,99399.24
2018-08-13T17:10:57.346Z,99397.69
2018-08-13T17:13:26.045Z,99403.71
2018-08-13T17:15:54.764Z,99415.54
2018-08-13T17:18:23.404Z,99413.39
2018-08-13T17:20:57.323Z,99422.14
2018-08-13T17:23:26.740Z,99416.34
2018-08-13T17:25:55.876Z,99421.94
2018-08-13T17:28:25.238Z,99431.65
2018-08-13T17:33:51.774Z,99442.34
2018-08-13T17:36:20.402Z,99445.63
2018-08-13T17:38:49.151Z,99440.39
2018-08-13T17:41:18.158Z,99444.08
2018-08-13T17:43:47.320Z,99450.87
2018-08-13T17:46:17.008Z,99449.34
2018-08-13T17:48:55.375Z,99448.55
2018-08-13T17:51:23.947Z,99446.98
2018-08-13T17:53:53.382Z,99450.50
2018-08-13T17:56:21.880Z,99448.34
2018-08-13T17:58:51.538Z,99451.86
2018-08-13T18:01:20.131Z,99453.02
2018-08-13T18:03:48.656Z,99458.45
2018-08-13T18:06:17.525Z,99455.93
2018-08-13T18:09:08.692Z,99454.58
2018-08-13T18:11:37.334Z,99448.94
2018-08-13T18:14:06.334Z,99444.10
2018-08-13T18:16:37.235Z,99449.94
2018-08-13T18:19:07.316Z,99445.66
2018-08-13T18:21:36.957Z,99447.78
2018-08-13T18:24:06.199Z,99448.38
2018-08-13T18:26:35.222Z,99448.57
2018-08-13T18:29:03.809Z,99443.93
2018-08-13T18:31:32.520Z,99441.02
2018-08-13T18:34:01.286Z,99445.66
2018-08-13T18:36:30.395Z,99449.36
2018-08-13T18:38:59.303Z,99452.64
2018-08-13T18:41:28.596Z,99455.38
2018-08-13T18:43:57.572Z,99454.78
2018-08-13T18:46:27.092Z,99461.77
2018-08-13T18:48:55.602Z,99457.89
2018-08-13T18:51:26.012Z,99456.73
2018-08-13T18:53:55.288Z,99459.85
2018-08-13T18:56:24.670Z,99464.49
2018-08-13T18:59:15.985Z,99465.65
2018-08-13T19:01:45.168Z,99467.80
2018-08-13T19:04:13.836Z,99465.27
2018-08-13T19:06:44.444Z,99469.16
2018-08-13T19:09:17.038Z,99466.44
2018-08-13T19:11:46.663Z,99461.97
2018-08-13T19:14:18.264Z,99459.45
2018-08-13T19:16:46.848Z,99451.07
2018-08-13T19:19:15.782Z,99460.40
2018-08-13T19:21:44.716Z,99462.91
2018-08-13T19:24:13.414Z,99467.94
2018-08-13T19:26:42.004Z,99473.38
2018-08-13T19:29:10.682Z,99468.33
2018-08-13T19:31:39.857Z,99472.58
2018-08-13T19:34:08.628Z,99472.97
2018-08-13T19:36:37.310Z,99474.91
2018-08-13T19:39:09.505Z,99475.10
2018-08-13T19:41:38.419Z,99474.11
2018-08-13T19:44:08.046Z,99472.75
2018-08-13T19:46:37.083Z,99478.98
2018-08-13T19:49:10.776Z,99472.98
2018-08-13T19:51:39.280Z,99475.30
2018-08-13T19:54:07.837Z,99476.66
2018-08-13T19:56:36.513Z,99465.42
2018-08-13T19:59:05.134Z,99465.19
2018-08-13T20:01:33.682Z,99465.33
2018-08-13T20:04:02.445Z,99461.06
2018-08-13T20:06:30.945Z,99457.31
2018-08-13T20:09:06.259Z,99467.58
2018-08-13T20:11:34.810Z,99465.43
2018-08-13T20:14:03.443Z,99466.80
2018-08-13T20:16:31.946Z,99471.14
2018-08-13T20:19:05.540Z,99469.23
2018-08-13T20:21:34.013Z,99464.38
2018-08-13T20:24:02.479Z,99472.31
2018-08-13T20:26:31.133Z,99465.70
2018-08-13T20:29:09.270Z,99468.16
2018-08-13T20:31:37.864Z,99460.78
2018-08-13T20:34:08.010Z,99460.97
2018-08-13T20:36:38.466Z,99462.09
2018-08-13T20:39:11.299Z,99463.08
2018-08-13T20:41:40.901Z,99464.23
2018-08-13T20:44:11.569Z,99462.69
2018-08-13T20:46:42.035Z,99465.20
2018-08-13T20:49:11.694Z,99462.85
2018-08-13T20:51:40.204Z,99472.34
2018-08-13T20:54:08.899Z,99476.01
2018-08-13T20:56:37.383Z,99473.45
2018-08-13T20:59:06.572Z,99474.41
2018-08-13T21:01:34.974Z,99481.16
2018-08-13T21:04:03.553Z,99479.62
2018-08-13T21:06:32.058Z,99472.66
2018-08-13T21:09:00.621Z,99473.05
2018-08-13T21:11:29.274Z,99477.50
2018-08-13T21:13:57.772Z,99487.57
2018-08-13T21:16:26.234Z,99490.48
2018-08-13T21:19:13.436Z,99485.80
2018-08-13T21:21:41.976Z,99498.00
2018-08-13T21:24:10.742Z,99495.86
2018-08-13T21:26:39.234Z,99496.47
2018-08-13T21:29:07.688Z,99501.89
2018-08-13T21:31:36.188Z,99500.13
2018-08-13T21:34:04.688Z,99493.91
2018-08-13T21:36:33.234Z,99499.52
2018-08-13T21:39:08.837Z,99494.86
2018-08-13T21:41:37.488Z,99496.22
2018-08-13T21:44:06.012Z,99490.97
2018-08-13T21:46:34.738Z,99486.12
2018-08-13T21:49:03.148Z,99488.83
2018-08-13T21:51:31.632Z,99491.36
2018-08-13T21:54:00.112Z,99491.72
2018-08-13T21:56:28.520Z,99495.95
2018-08-13T21:58:57.045Z,99500.61
2018-08-13T22:01:31.023Z,99499.05
2018-08-13T22:03:59.503Z,99496.72
2018-08-13T22:06:28.023Z,99500.96
2018-08-13T22:09:01.555Z,99499.34
2018-08-13T22:11:30.051Z,99503.76
2018-08-13T22:13:58.691Z,99497.75
2018-08-13T22:16:27.130Z,99504.91
2018-08-13T22:18:55.784Z,99499.66
2018-08-13T22:21:24.544Z,99497.34
2018-08-13T22:24:05.542Z,99511.26
2018-08-13T22:26:34.010Z,99499.25
2018-08-13T22:29:02.594Z,99507.75
2018-08-13T22:31:31.609Z,99499.42
2018-08-13T22:34:00.049Z,99502.69
2018-08-13T22:36:28.458Z,99501.12
2018-08-13T22:38:56.933Z,99495.88
2018-08-13T22:41:26.038Z,99492.00
2018-08-13T22:43:55.514Z,99495.12
2018-08-13T22:46:24.297Z,99500.16
2018-08-13T22:48:59.072Z,99498.97
2018-08-13T22:51:27.956Z,99492.17
2018-08-13T22:53:56.778Z,99493.73
2018-08-13T22:56:26.628Z,99491.41
2018-08-13T22:58:55.548Z,99494.84
2018-08-13T23:01:24.222Z,99504.53
2018-08-13T23:03:52.978Z,99492.52
2018-08-13T23:06:22.214Z,99491.13
2018-08-13T23:08:51.204Z,99491.34
2018-08-13T23:11:20.315Z,99484.36
2018-08-13T23:13:49.076Z,99486.23
2018-08-13T23:16:18.893Z,99485.47
2018-08-13T23:18:48.365Z,99486.23
2018-08-13T23:21:17.112Z,99491.98
2018-08-13T23:23:46.068Z,99483.66
2018-08-13T23:26:14.718Z,99485.78
2018-08-13T23:28:43.320Z,99492.50
2018-08-13T23:31:11.911Z,99483.03
2018-08-13T23:33:40.390Z,99490.98
2018-08-13T23:36:08.787Z,99502.98
2018-08-13T23:38:37.444Z,99499.48
2018-08-13T23:41:06.844Z,99496.73
2018-08-13T23:43:35.488Z,99499.65
2018-08-13T23:46:03.982Z,99495.21
2018-08-13T23:48:32.749Z,99496.98
2018-08-13T23:53:59.053Z,99503.33
2018-08-13T23:56:27.650Z,99514.57
2018-08-13T23:58:56.225Z,99512.08
